Main page
METAR-TAF:

METAR-TAF

Airports :

Nioro Airport

Nioro du Sahel, Mali

latitude: 15-14N, longitude: 009-21W, elevation: 235 m

Current weather observation

The report was made 2 hours and 39 minutes ago, at 15:00 UTC
Wind 6 kt from the North/Northwest
Temperature 38°C
Humidity 31%
Pressure 1011 hPa
Visibility 10 km or more
no clouds below 1500 m and no cumulonimbus

METAR: GANR 221500Z 34006KT CAVOK 38/18 Q1011

Time: 17:39 (17:39 UTC)


TAF: missing

Weather observations and forecasts of more than 4000 airports (METAR and TAF reports).

The available stations are represented by yellow and red dots on the map.

Hover mouse over dot to see the name of the station.

Then click to see weather observations and forecasts.

To change the map : click on the green buttons with a black cross to zoom in, on the green button with a dash to zoom out, or on the green arrows for adjacent maps.


METAR-TAF: